sensor_id;sensor_type;location;lat;lon;timestamp;pressure;altitude;pressure_sealevel;temperature;humidity
49102;BME280;34913;47.520;19.186;2023-01-20T00:00:08;99113.53;;;2.00;96.49
49102;BME280;34913;47.520;19.186;2023-01-20T00:02:35;99115.41;;;1.98;96.85
49102;BME280;34913;47.520;19.186;2023-01-20T00:05:01;99117.06;;;2.13;95.70
49102;BME280;34913;47.520;19.186;2023-01-20T00:07:26;99113.78;;;2.23;95.10
49102;BME280;34913;47.520;19.186;2023-01-20T00:09:51;99117.34;;;2.22;95.24
49102;BME280;34913;47.520;19.186;2023-01-20T00:12:17;99114.78;;;2.21;95.22
49102;BME280;34913;47.520;19.186;2023-01-20T00:14:42;99110.63;;;2.04;95.12
49102;BME280;34913;47.520;19.186;2023-01-20T00:17:08;99109.03;;;2.02;96.00
49102;BME280;34913;47.520;19.186;2023-01-20T00:19:33;99125.31;;;1.92;95.83
49102;BME280;34913;47.520;19.186;2023-01-20T00:21:58;99135.09;;;1.89;96.82
49102;BME280;34913;47.520;19.186;2023-01-20T00:24:24;99138.19;;;1.95;96.62
49102;BME280;34913;47.520;19.186;2023-01-20T00:26:49;99150.91;;;1.87;96.71
49102;BME280;34913;47.520;19.186;2023-01-20T00:29:15;99153.97;;;1.80;97.68
49102;BME280;34913;47.520;19.186;2023-01-20T00:31:40;99161.81;;;1.80;98.40
49102;BME280;34913;47.520;19.186;2023-01-20T00:34:08;99158.94;;;1.84;98.47
49102;BME280;34913;47.520;19.186;2023-01-20T00:36:33;99160.34;;;2.04;96.83
49102;BME280;34913;47.520;19.186;2023-01-20T00:39:00;99162.50;;;2.12;95.65
49102;BME280;34913;47.520;19.186;2023-01-20T00:41:27;99162.78;;;2.07;96.00
49102;BME280;34913;47.520;19.186;2023-01-20T00:43:52;99163.06;;;2.17;95.25
49102;BME280;34913;47.520;19.186;2023-01-20T00:46:18;99164.47;;;2.22;94.13
49102;BME280;34913;47.520;19.186;2023-01-20T00:48:43;99174.94;;;2.22;94.00
49102;BME280;34913;47.520;19.186;2023-01-20T00:51:09;99172.59;;;2.04;94.13
49102;BME280;34913;47.520;19.186;2023-01-20T00:53:35;99173.06;;;1.96;95.33
49102;BME280;34913;47.520;19.186;2023-01-20T00:56:01;99162.22;;;1.88;95.84
49102;BME280;34913;47.520;19.186;2023-01-20T00:58:26;99161.94;;;1.78;96.42
49102;BME280;34913;47.520;19.186;2023-01-20T01:00:53;99163.97;;;1.87;97.00
49102;BME280;34913;47.520;19.186;2023-01-20T01:03:19;99164.47;;;1.94;97.24
49102;BME280;34913;47.520;19.186;2023-01-20T01:05:45;99158.88;;;2.00;96.99
49102;BME280;34913;47.520;19.186;2023-01-20T01:08:10;99154.56;;;1.99;96.73
49102;BME280;34913;47.520;19.186;2023-01-20T01:10:36;99147.34;;;2.03;96.46
49102;BME280;34913;47.520;19.186;2023-01-20T01:13:03;99135.31;;;2.14;95.58
49102;BME280;34913;47.520;19.186;2023-01-20T01:15:29;99126.78;;;2.11;95.18
49102;BME280;34913;47.520;19.186;2023-01-20T01:17:56;99128.88;;;2.06;95.38
49102;BME280;34913;47.520;19.186;2023-01-20T01:20:22;99128.00;;;2.05;96.01
49102;BME280;34913;47.520;19.186;2023-01-20T01:22:48;99131.19;;;2.10;96.27
49102;BME280;34913;47.520;19.186;2023-01-20T01:25:13;99116.16;;;2.14;95.82
49102;BME280;34913;47.520;19.186;2023-01-20T01:27:39;99106.69;;;2.11;95.72
49102;BME280;34913;47.520;19.186;2023-01-20T01:30:04;99102.00;;;2.16;96.19
49102;BME280;34913;47.520;19.186;2023-01-20T01:32:30;99090.88;;;2.13;94.74
49102;BME280;34913;47.520;19.186;2023-01-20T01:34:56;99083.25;;;1.95;95.49
49102;BME280;34913;47.520;19.186;2023-01-20T01:37:21;99087.72;;;1.93;96.04
49102;BME280;34913;47.520;19.186;2023-01-20T01:39:47;99089.88;;;2.01;96.47
49102;BME280;34913;47.520;19.186;2023-01-20T01:42:14;99090.13;;;2.11;96.13
49102;BME280;34913;47.520;19.186;2023-01-20T01:50:03;99086.50;;;2.13;95.83
49102;BME280;34913;47.520;19.186;2023-01-20T01:52:30;99082.66;;;2.05;95.36
49102;BME280;34913;47.520;19.186;2023-01-20T01:54:56;99082.97;;;1.86;96.20
49102;BME280;34913;47.520;19.186;2023-01-20T01:57:23;99081.75;;;1.91;96.06
49102;BME280;34913;47.520;19.186;2023-01-20T01:59:48;99075.97;;;1.86;96.51
49102;BME280;34913;47.520;19.186;2023-01-20T02:02:14;99072.78;;;1.95;96.59
49102;BME280;34913;47.520;19.186;2023-01-20T02:04:39;99079.88;;;1.79;96.46
49102;BME280;34913;47.520;19.186;2023-01-20T02:07:12;99085.78;;;1.68;96.99
49102;BME280;34913;47.520;19.186;2023-01-20T02:09:41;99084.75;;;1.71;97.63
49102;BME280;34913;47.520;19.186;2023-01-20T02:12:13;99075.13;;;1.72;97.84
49102;BME280;34913;47.520;19.186;2023-01-20T02:14:42;99077.56;;;1.75;98.22
49102;BME280;34913;47.520;19.186;2023-01-20T02:17:27;99074.66;;;1.79;98.19
49102;BME280;34913;47.520;19.186;2023-01-20T02:35:48;99086.34;;;1.59;99.12
49102;BME280;34913;47.520;19.186;2023-01-20T02:43:45;99086.03;;;1.50;100.00
49102;BME280;34913;47.520;19.186;2023-01-20T02:49:18;99080.81;;;1.64;100.00
49102;BME280;34913;47.520;19.186;2023-01-20T02:51:55;99082.97;;;1.57;100.00
49102;BME280;34913;47.520;19.186;2023-01-20T02:54:25;99090.44;;;1.63;100.00
49102;BME280;34913;47.520;19.186;2023-01-20T02:56:52;99098.28;;;1.49;100.00
49102;BME280;34913;47.520;19.186;2023-01-20T02:59:22;99099.13;;;1.64;100.00
49102;BME280;34913;47.520;19.186;2023-01-20T03:02:10;99099.72;;;1.83;100.00
49102;BME280;34913;47.520;19.186;2023-01-20T03:04:50;99108.94;;;1.89;99.86
49102;BME280;34913;47.520;19.186;2023-01-20T03:07:19;99115.50;;;1.82;99.93
49102;BME280;34913;47.520;19.186;2023-01-20T03:09:48;99114.09;;;1.76;100.00
49102;BME280;34913;47.520;19.186;2023-01-20T03:12:20;99119.44;;;1.75;100.00
49102;BME280;34913;47.520;19.186;2023-01-20T03:14:50;99112.31;;;1.77;100.00
49102;BME280;34913;47.520;19.186;2023-01-20T03:17:17;99117.25;;;1.81;100.00
49102;BME280;34913;47.520;19.186;2023-01-20T03:19:43;99123.25;;;1.83;100.00
49102;BME280;34913;47.520;19.186;2023-01-20T03:22:08;99118.28;;;1.79;100.00
49102;BME280;34913;47.520;19.186;2023-01-20T03:24:49;99116.41;;;1.81;100.00
49102;BME280;34913;47.520;19.186;2023-01-20T03:27:16;99124.25;;;1.81;100.00
49102;BME280;34913;47.520;19.186;2023-01-20T03:29:41;99127.81;;;1.80;100.00
49102;BME280;34913;47.520;19.186;2023-01-20T03:32:08;99127.66;;;1.83;100.00
49102;BME280;34913;47.520;19.186;2023-01-20T03:34:36;99125.97;;;1.82;99.90
49102;BME280;34913;47.520;19.186;2023-01-20T03:37:04;99129.34;;;1.84;100.00
49102;BME280;34913;47.520;19.186;2023-01-20T03:39:30;99127.72;;;1.81;100.00
49102;BME280;34913;47.520;19.186;2023-01-20T03:50:50;99118.19;;;1.80;99.88
49102;BME280;34913;47.520;19.186;2023-01-20T03:53:46;99114.25;;;1.73;100.00
49102;BME280;34913;47.520;19.186;2023-01-20T03:58:42;99108.75;;;1.63;100.00
49102;BME280;34913;47.520;19.186;2023-01-20T04:01:10;99101.19;;;1.59;100.00
49102;BME280;34913;47.520;19.186;2023-01-20T04:03:41;99103.63;;;1.62;100.00
49102;BME280;34913;47.520;19.186;2023-01-20T04:06:10;99095.88;;;1.60;100.00
49102;BME280;34913;47.520;19.186;2023-01-20T04:08:42;99088.88;;;1.61;100.00
49102;BME280;34913;47.520;19.186;2023-01-20T04:11:10;99087.94;;;1.62;100.00
49102;BME280;34913;47.520;19.186;2023-01-20T04:13:35;99088.09;;;1.73;100.00
49102;BME280;34913;47.520;19.186;2023-01-20T04:16:02;99087.66;;;1.66;99.61
49102;BME280;34913;47.520;19.186;2023-01-20T04:18:29;99098.75;;;1.70;99.59
49102;BME280;34913;47.520;19.186;2023-01-20T04:21:02;99106.03;;;1.65;99.12
49102;BME280;34913;47.520;19.186;2023-01-20T04:23:49;99105.56;;;1.73;99.72
49102;BME280;34913;47.520;19.186;2023-01-20T04:26:16;99103.16;;;1.84;99.96
49102;BME280;34913;47.520;19.186;2023-01-20T04:28:42;99106.88;;;1.94;98.79
49102;BME280;34913;47.520;19.186;2023-01-20T04:31:07;99121.00;;;1.77;98.60
49102;BME280;34913;47.520;19.186;2023-01-20T04:33:36;99110.38;;;1.66;99.25
49102;BME280;34913;47.520;19.186;2023-01-20T04:36:02;99108.94;;;1.60;99.88
49102;BME280;34913;47.520;19.186;2023-01-20T04:38:27;99111.56;;;1.60;99.85
49102;BME280;34913;47.520;19.186;2023-01-20T04:40:53;99111.09;;;1.54;100.00
49102;BME280;34913;47.520;19.186;2023-01-20T04:43:18;99107.34;;;1.58;100.00
49102;BME280;34913;47.520;19.186;2023-01-20T04:45:43;99105.13;;;1.66;100.00
49102;BME280;34913;47.520;19.186;2023-01-20T04:48:09;99111.28;;;1.79;100.00
49102;BME280;34913;47.520;19.186;2023-01-20T04:50:38;99102.59;;;1.79;99.85
49102;BME280;34913;47.520;19.186;2023-01-20T04:53:04;99112.59;;;1.86;99.44
49102;BME280;34913;47.520;19.186;2023-01-20T04:55:31;99110.25;;;1.96;98.89
49102;BME280;34913;47.520;19.186;2023-01-20T04:57:57;99106.78;;;1.95;98.74
49102;BME280;34913;47.520;19.186;2023-01-20T05:00:22;99106.72;;;1.83;98.75
49102;BME280;34913;47.520;19.186;2023-01-20T05:02:48;99091.09;;;1.81;99.15
49102;BME280;34913;47.520;19.186;2023-01-20T05:05:13;99096.16;;;1.70;99.56
49102;BME280;34913;47.520;19.186;2023-01-20T05:07:39;99080.53;;;1.54;100.00
49102;BME280;34913;47.520;19.186;2023-01-20T05:10:05;99070.53;;;1.47;100.00
49102;BME280;34913;47.520;19.186;2023-01-20T05:12:30;99067.00;;;1.48;100.00
49102;BME280;34913;47.520;19.186;2023-01-20T05:14:56;99065.41;;;1.45;100.00
49102;BME280;34913;47.520;19.186;2023-01-20T05:17:21;99055.50;;;1.36;100.00
49102;BME280;34913;47.520;19.186;2023-01-20T05:19:47;99058.59;;;1.43;100.00
49102;BME280;34913;47.520;19.186;2023-01-20T05:22:12;99054.84;;;1.32;100.00
49102;BME280;34913;47.520;19.186;2023-01-20T05:24:37;99052.59;;;1.40;100.00
49102;BME280;34913;47.520;19.186;2023-01-20T05:27:03;99057.56;;;1.45;100.00
49102;BME280;34913;47.520;19.186;2023-01-20T05:29:28;99059.41;;;1.57;100.00
49102;BME280;34913;47.520;19.186;2023-01-20T05:31:54;99068.31;;;1.69;100.00
49102;BME280;34913;47.520;19.186;2023-01-20T05:34:19;99071.66;;;1.71;100.00
49102;BME280;34913;47.520;19.186;2023-01-20T05:36:45;99081.59;;;1.66;100.00
49102;BME280;34913;47.520;19.186;2023-01-20T05:39:10;99081.75;;;1.63;100.00
49102;BME280;34913;47.520;19.186;2023-01-20T05:41:36;99077.47;;;1.62;100.00
49102;BME280;34913;47.520;19.186;2023-01-20T05:44:01;99065.50;;;1.72;100.00
49102;BME280;34913;47.520;19.186;2023-01-20T05:46:27;99065.41;;;1.74;100.00
49102;BME280;34913;47.520;19.186;2023-01-20T05:48:52;99073.06;;;1.62;100.00
49102;BME280;34913;47.520;19.186;2023-01-20T05:51:18;99077.25;;;1.65;100.00
49102;BME280;34913;47.520;19.186;2023-01-20T05:53:43;99083.81;;;1.72;100.00
49102;BME280;34913;47.520;19.186;2023-01-20T05:56:09;99066.28;;;1.74;100.00
49102;BME280;34913;47.520;19.186;2023-01-20T05:58:37;99068.22;;;1.85;100.00
49102;BME280;34913;47.520;19.186;2023-01-20T06:01:07;99068.09;;;1.86;100.00
49102;BME280;34913;47.520;19.186;2023-01-20T06:03:33;99065.22;;;1.91;100.00
49102;BME280;34913;47.520;19.186;2023-01-20T06:06:04;99075.13;;;1.86;100.00
49102;BME280;34913;47.520;19.186;2023-01-20T06:08:30;99074.66;;;1.79;100.00
49102;BME280;34913;47.520;19.186;2023-01-20T06:10:56;99080.19;;;1.75;100.00
49102;BME280;34913;47.520;19.186;2023-01-20T06:13:21;99091.66;;;1.86;100.00
49102;BME280;34913;47.520;19.186;2023-01-20T06:15:51;99083.06;;;1.84;100.00
49102;BME280;34913;47.520;19.186;2023-01-20T06:18:18;99078.00;;;1.81;100.00
49102;BME280;34913;47.520;19.186;2023-01-20T06:20:44;99074.00;;;1.76;100.00
49102;BME280;34913;47.520;19.186;2023-01-20T06:23:09;99077.75;;;1.72;100.00
49102;BME280;34913;47.520;19.186;2023-01-20T06:25:35;99074.13;;;1.74;100.00
49102;BME280;34913;47.520;19.186;2023-01-20T06:28:00;99072.13;;;1.78;100.00
49102;BME280;34913;47.520;19.186;2023-01-20T06:30:25;99067.53;;;1.81;100.00
49102;BME280;34913;47.520;19.186;2023-01-20T06:32:51;99063.56;;;1.76;100.00
49102;BME280;34913;47.520;19.186;2023-01-20T06:35:19;99071.56;;;1.73;100.00
49102;BME280;34913;47.520;19.186;2023-01-20T06:37:44;99066.16;;;1.76;100.00
49102;BME280;34913;47.520;19.186;2023-01-20T06:40:10;99070.34;;;1.78;100.00
49102;BME280;34913;47.520;19.186;2023-01-20T06:42:35;99073.66;;;1.82;100.00
49102;BME280;34913;47.520;19.186;2023-01-20T06:45:01;99080.47;;;1.84;100.00
49102;BME280;34913;47.520;19.186;2023-01-20T06:47:26;99076.63;;;1.90;100.00
49102;BME280;34913;47.520;19.186;2023-01-20T06:49:52;99078.00;;;1.95;100.00
49102;BME280;34913;47.520;19.186;2023-01-20T06:52:17;99078.56;;;2.01;100.00
49102;BME280;34913;47.520;19.186;2023-01-20T06:54:43;99085.84;;;2.10;100.00
49102;BME280;34913;47.520;19.186;2023-01-20T06:57:08;99089.97;;;2.14;100.00
49102;BME280;34913;47.520;19.186;2023-01-20T06:59:33;99089.19;;;2.12;100.00
49102;BME280;34913;47.520;19.186;2023-01-20T07:01:59;99101.66;;;2.08;100.00
49102;BME280;34913;47.520;19.186;2023-01-20T07:04:24;99108.28;;;2.14;100.00
49102;BME280;34913;47.520;19.186;2023-01-20T07:06:50;99110.34;;;2.09;100.00
49102;BME280;34913;47.520;19.186;2023-01-20T07:09:15;99112.69;;;2.13;100.00
49102;BME280;34913;47.520;19.186;2023-01-20T07:11:41;99110.97;;;2.12;100.00
49102;BME280;34913;47.520;19.186;2023-01-20T07:14:07;99111.06;;;2.11;100.00
49102;BME280;34913;47.520;19.186;2023-01-20T07:16:33;99114.63;;;2.10;100.00
49102;BME280;34913;47.520;19.186;2023-01-20T07:18:59;99116.78;;;2.17;100.00
49102;BME280;34913;47.520;19.186;2023-01-20T07:21:25;99117.06;;;2.13;100.00
49102;BME280;34913;47.520;19.186;2023-01-20T07:23:50;99124.00;;;2.14;100.00
49102;BME280;34913;47.520;19.186;2023-01-20T07:26:18;99126.50;;;2.15;100.00
49102;BME280;34913;47.520;19.186;2023-01-20T07:28:45;99139.22;;;2.07;100.00
49102;BME280;34913;47.520;19.186;2023-01-20T07:31:13;99125.09;;;2.10;100.00
49102;BME280;34913;47.520;19.186;2023-01-20T07:33:39;99131.38;;;2.07;100.00
49102;BME280;34913;47.520;19.186;2023-01-20T07:36:06;99128.94;;;2.04;100.00
49102;BME280;34913;47.520;19.186;2023-01-20T07:38:32;99129.50;;;2.09;100.00
49102;BME280;34913;47.520;19.186;2023-01-20T07:41:00;99123.22;;;2.12;100.00
49102;BME280;34913;47.520;19.186;2023-01-20T07:43:26;99123.78;;;2.17;100.00
49102;BME280;34913;47.520;19.186;2023-01-20T07:46:00;99125.00;;;2.26;100.00
49102;BME280;34913;47.520;19.186;2023-01-20T07:48:26;99128.06;;;2.32;100.00
49102;BME280;34913;47.520;19.186;2023-01-20T07:51:00;99131.63;;;2.31;100.00
49102;BME280;34913;47.520;19.186;2023-01-20T07:53:28;99134.44;;;2.28;100.00
49102;BME280;34913;47.520;19.186;2023-01-20T07:55:54;99138.28;;;2.22;100.00
49102;BME280;34913;47.520;19.186;2023-01-20T07:58:19;99140.81;;;2.24;100.00
49102;BME280;34913;47.520;19.186;2023-01-20T08:00:44;99143.69;;;2.19;100.00
49102;BME280;34913;47.520;19.186;2023-01-20T08:03:13;99144.72;;;2.17;100.00
49102;BME280;34913;47.520;19.186;2023-01-20T08:05:39;99145.47;;;2.19;100.00
49102;BME280;34913;47.520;19.186;2023-01-20T08:08:05;99154.00;;;2.22;100.00
49102;BME280;34913;47.520;19.186;2023-01-20T08:10:30;99142.97;;;2.17;100.00
49102;BME280;34913;47.520;19.186;2023-01-20T08:12:57;99140.81;;;2.24;100.00
49102;BME280;34913;47.520;19.186;2023-01-20T08:15:23;99143.31;;;2.26;100.00
49102;BME280;34913;47.520;19.186;2023-01-20T08:17:53;99145.09;;;2.25;100.00
49102;BME280;34913;47.520;19.186;2023-01-20T08:20:19;99147.25;;;2.33;100.00
49102;BME280;34913;47.520;19.186;2023-01-20T08:22:44;99151.53;;;2.34;100.00
49102;BME280;34913;47.520;19.186;2023-01-20T08:25:09;99150.50;;;2.36;100.00
49102;BME280;34913;47.520;19.186;2023-01-20T08:27:35;99156.78;;;2.34;100.00
49102;BME280;34913;47.520;19.186;2023-01-20T08:30:00;99152.00;;;2.40;100.00
49102;BME280;34913;47.520;19.186;2023-01-20T08:32:26;99153.69;;;2.41;100.00
49102;BME280;34913;47.520;19.186;2023-01-20T08:34:51;99158.72;;;2.44;100.00
49102;BME280;34913;47.520;19.186;2023-01-20T08:37:17;99155.91;;;2.47;100.00
49102;BME280;34913;47.520;19.186;2023-01-20T08:39:42;99158.81;;;2.43;100.00
49102;BME280;34913;47.520;19.186;2023-01-20T08:42:08;99150.59;;;2.49;100.00
49102;BME280;34913;47.520;19.186;2023-01-20T08:44:33;99154.25;;;2.46;100.00
49102;BME280;34913;47.520;19.186;2023-01-20T08:46:58;99149.84;;;2.47;100.00
49102;BME280;34913;47.520;19.186;2023-01-20T08:49:24;99159.66;;;2.43;100.00
49102;BME280;34913;47.520;19.186;2023-01-20T08:51:50;99166.69;;;2.43;100.00
49102;BME280;34913;47.520;19.186;2023-01-20T08:54:15;99167.34;;;2.46;100.00
49102;BME280;34913;47.520;19.186;2023-01-20T08:56:41;99167.13;;;2.49;100.00
49102;BME280;34913;47.520;19.186;2023-01-20T08:59:07;99167.97;;;2.50;100.00
49102;BME280;34913;47.520;19.186;2023-01-20T09:01:34;99172.59;;;2.46;100.00
49102;BME280;34913;47.520;19.186;2023-01-20T09:04:03;99170.13;;;2.43;100.00
49102;BME280;34913;47.520;19.186;2023-01-20T09:06:30;99162.38;;;2.42;100.00
49102;BME280;34913;47.520;19.186;2023-01-20T09:08:55;99163.69;;;2.49;100.00
49102;BME280;34913;47.520;19.186;2023-01-20T09:11:22;99166.09;;;2.52;100.00
49102;BME280;34913;47.520;19.186;2023-01-20T09:13:52;99164.63;;;2.48;100.00
49102;BME280;34913;47.520;19.186;2023-01-20T09:16:18;99159.19;;;2.51;100.00
49102;BME280;34913;47.520;19.186;2023-01-20T09:18:44;99161.97;;;2.62;100.00
49102;BME280;34913;47.520;19.186;2023-01-20T09:21:09;99160.38;;;2.60;100.00
49102;BME280;34913;47.520;19.186;2023-01-20T09:23:37;99158.31;;;2.65;100.00
49102;BME280;34913;47.520;19.186;2023-01-20T09:26:05;99147.63;;;2.68;100.00
49102;BME280;34913;47.520;19.186;2023-01-20T09:28:31;99146.59;;;2.70;100.00
49102;BME280;34913;47.520;19.186;2023-01-20T09:31:03;99135.28;;;2.70;100.00
49102;BME280;34913;47.520;19.186;2023-01-20T09:33:29;99127.97;;;2.75;100.00
49102;BME280;34913;47.520;19.186;2023-01-20T09:35:56;99124.38;;;2.76;100.00
49102;BME280;34913;47.520;19.186;2023-01-20T09:38:22;99116.34;;;2.79;100.00
49102;BME280;34913;47.520;19.186;2023-01-20T09:41:31;99114.84;;;2.75;100.00
49102;BME280;34913;47.520;19.186;2023-01-20T09:47:18;99105.22;;;2.75;100.00
49102;BME280;34913;47.520;19.186;2023-01-20T09:52:42;99101.47;;;2.79;100.00
49102;BME280;34913;47.520;19.186;2023-01-20T09:58:23;99091.81;;;2.80;100.00
49102;BME280;34913;47.520;19.186;2023-01-20T10:04:00;99074.94;;;2.84;100.00
49102;BME280;34913;47.520;19.186;2023-01-20T10:06:38;99063.97;;;2.92;100.00
49102;BME280;34913;47.520;19.186;2023-01-20T10:11:42;99054.84;;;2.85;100.00
49102;BME280;34913;47.520;19.186;2023-01-20T10:14:32;99052.25;;;2.97;100.00
49102;BME280;34913;47.520;19.186;2023-01-20T10:17:14;99045.75;;;3.03;99.55
49102;BME280;34913;47.520;19.186;2023-01-20T10:22:39;99047.44;;;3.04;98.29
49102;BME280;34913;47.520;19.186;2023-01-20T10:25:11;99047.31;;;3.05;98.07
49102;BME280;34913;47.520;19.186;2023-01-20T10:27:42;99045.09;;;2.99;98.07
49102;BME280;34913;47.520;19.186;2023-01-20T10:30:10;99051.84;;;3.03;97.99
49102;BME280;34913;47.520;19.186;2023-01-20T10:32:51;99067.56;;;3.03;97.81
49102;BME280;34913;47.520;19.186;2023-01-20T10:35:26;99058.53;;;3.07;97.26
49102;BME280;34913;47.520;19.186;2023-01-20T10:37:52;99061.47;;;3.03;97.30
49102;BME280;34913;47.520;19.186;2023-01-20T10:43:00;99061.78;;;2.98;97.61
49102;BME280;34913;47.520;19.186;2023-01-20T10:46:00;99062.63;;;2.99;98.17
49102;BME280;34913;47.520;19.186;2023-01-20T10:51:27;99057.38;;;2.99;98.37
49102;BME280;34913;47.520;19.186;2023-01-20T10:56:36;99070.94;;;3.18;98.58
49102;BME280;34913;47.520;19.186;2023-01-20T10:59:08;99074.69;;;3.14;97.27
49102;BME280;34913;47.520;19.186;2023-01-20T11:01:36;99083.41;;;3.15;98.33
49102;BME280;34913;47.520;19.186;2023-01-20T11:04:02;99075.53;;;3.15;97.71
49102;BME280;34913;47.520;19.186;2023-01-20T11:06:28;99078.28;;;3.13;97.25
49102;BME280;34913;47.520;19.186;2023-01-20T11:08:54;99074.81;;;3.13;98.27
49102;BME280;34913;47.520;19.186;2023-01-20T11:11:22;99065.69;;;3.18;97.57
49102;BME280;34913;47.520;19.186;2023-01-20T11:13:49;99074.81;;;3.13;98.25
49102;BME280;34913;47.520;19.186;2023-01-20T11:16:23;99068.44;;;3.17;99.13
49102;BME280;34913;47.520;19.186;2023-01-20T11:18:58;99058.25;;;3.12;99.10
49102;BME280;34913;47.520;19.186;2023-01-20T11:21:26;99050.25;;;3.14;99.83
49102;BME280;34913;47.520;19.186;2023-01-20T11:23:53;99045.03;;;3.14;100.00
49102;BME280;34913;47.520;19.186;2023-01-20T11:26:29;99036.53;;;3.10;99.42
49102;BME280;34913;47.520;19.186;2023-01-20T11:31:32;99032.00;;;2.99;100.00
49102;BME280;34913;47.520;19.186;2023-01-20T11:36:41;99010.63;;;2.93;100.00
49102;BME280;34913;47.520;19.186;2023-01-20T11:39:26;99005.47;;;2.91;100.00
49102;BME280;34913;47.520;19.186;2023-01-20T11:44:40;99011.66;;;2.90;100.00
49102;BME280;34913;47.520;19.186;2023-01-20T11:47:20;99009.03;;;2.77;100.00
49102;BME280;34913;47.520;19.186;2023-01-20T11:52:32;99015.59;;;2.70;100.00
49102;BME280;34913;47.520;19.186;2023-01-20T11:55:07;99010.56;;;2.67;100.00
49102;BME280;34913;47.520;19.186;2023-01-20T11:57:33;99000.84;;;2.69;100.00
49102;BME280;34913;47.520;19.186;2023-01-20T11:59:59;98996.72;;;2.65;100.00
49102;BME280;34913;47.520;19.186;2023-01-20T12:02:27;98994.44;;;2.61;100.00
49102;BME280;34913;47.520;19.186;2023-01-20T12:10:29;99001.22;;;2.63;100.00
49102;BME280;34913;47.520;19.186;2023-01-20T12:13:02;99001.34;;;2.62;100.00
49102;BME280;34913;47.520;19.186;2023-01-20T12:15:32;98998.56;;;2.50;100.00
49102;BME280;34913;47.520;19.186;2023-01-20T12:20:59;98998.56;;;2.50;100.00
49102;BME280;34913;47.520;19.186;2023-01-20T12:26:05;99009.75;;;2.40;100.00
49102;BME280;34913;47.520;19.186;2023-01-20T12:28:53;99006.31;;;2.52;100.00
49102;BME280;34913;47.520;19.186;2023-01-20T12:31:20;99003.19;;;2.47;100.00
49102;BME280;34913;47.520;19.186;2023-01-20T12:33:58;98998.56;;;2.50;100.00
49102;BME280;34913;47.520;19.186;2023-01-20T12:44:31;98994.47;;;2.46;100.00
49102;BME280;34913;47.520;19.186;2023-01-20T12:57:35;99001.91;;;2.52;100.00
49102;BME280;34913;47.520;19.186;2023-01-20T13:00:28;99001.00;;;2.54;100.00
49102;BME280;34913;47.520;19.186;2023-01-20T13:05:41;99009.16;;;2.49;100.00
49102;BME280;34913;47.520;19.186;2023-01-20T13:19:09;99018.38;;;2.28;100.00
49102;BME280;34913;47.520;19.186;2023-01-20T13:21:36;99015.63;;;2.16;100.00
49102;BME280;34913;47.520;19.186;2023-01-20T13:24:03;99019.13;;;2.03;100.00
49102;BME280;34913;47.520;19.186;2023-01-20T13:26:31;99020.44;;;1.95;100.00
49102;BME280;34913;47.520;19.186;2023-01-20T13:28:57;99013.88;;;2.03;100.00
49102;BME280;34913;47.520;19.186;2023-01-20T13:41:57;99018.63;;;2.10;100.00
49102;BME280;34913;47.520;19.186;2023-01-20T13:44:33;99010.72;;;1.98;100.00
49102;BME280;34913;47.520;19.186;2023-01-20T13:47:00;99015.97;;;1.98;100.00
49102;BME280;34913;47.520;19.186;2023-01-20T13:49:27;99013.41;;;1.96;100.00
49102;BME280;34913;47.520;19.186;2023-01-20T13:51:53;99012.56;;;2.10;100.00
49102;BME280;34913;47.520;19.186;2023-01-20T13:56:49;99012.66;;;2.08;100.00
49102;BME280;34913;47.520;19.186;2023-01-20T13:59:14;99018.63;;;2.10;100.00
49102;BME280;34913;47.520;19.186;2023-01-20T14:01:40;99018.53;;;2.12;100.00
49102;BME280;34913;47.520;19.186;2023-01-20T14:04:13;99030.63;;;2.00;100.00
49102;BME280;34913;47.520;19.186;2023-01-20T14:06:50;99029.88;;;1.98;100.00
49102;BME280;34913;47.520;19.186;2023-01-20T14:09:24;99035.78;;;1.87;100.00
49102;BME280;34913;47.520;19.186;2023-01-20T14:11:54;99033.41;;;1.97;100.00
49102;BME280;34913;47.520;19.186;2023-01-20T14:14:23;99042.56;;;2.04;100.00
49102;BME280;34913;47.520;19.186;2023-01-20T14:16:50;99042.91;;;2.12;100.00
49102;BME280;34913;47.520;19.186;2023-01-20T14:19:29;99050.97;;;2.09;100.00
49102;BME280;34913;47.520;19.186;2023-01-20T14:22:19;99058.25;;;2.18;100.00
49102;BME280;34913;47.520;19.186;2023-01-20T14:24:49;99053.66;;;2.22;100.00
49102;BME280;34913;47.520;19.186;2023-01-20T14:27:34;99052.38;;;2.15;100.00
49102;BME280;34913;47.520;19.186;2023-01-20T14:30:24;99048.13;;;2.27;100.00
49102;BME280;34913;47.520;19.186;2023-01-20T14:32:51;99045.75;;;2.09;100.00
49102;BME280;34913;47.520;19.186;2023-01-20T14:35:32;99046.69;;;2.08;100.00
49102;BME280;34913;47.520;19.186;2023-01-20T14:37:58;99053.25;;;1.87;100.00
49102;BME280;34913;47.520;19.186;2023-01-20T14:40:30;99054.41;;;1.83;100.00
49102;BME280;34913;47.520;19.186;2023-01-20T14:43:02;99059.78;;;1.80;100.00
49102;BME280;34913;47.520;19.186;2023-01-20T14:45:31;99060.16;;;1.88;100.00
49102;BME280;34913;47.520;19.186;2023-01-20T14:47:59;99068.94;;;1.87;100.00
49102;BME280;34913;47.520;19.186;2023-01-20T14:50:25;99073.66;;;1.67;100.00
49102;BME280;34913;47.520;19.186;2023-01-20T14:52:51;99070.47;;;1.62;100.00
49102;BME280;34913;47.520;19.186;2023-01-20T14:57:52;99069.25;;;1.54;100.00
49102;BME280;34913;47.520;19.186;2023-01-20T15:03:09;99073.44;;;1.28;100.00
49102;BME280;34913;47.520;19.186;2023-01-20T15:05:39;99069.59;;;1.33;100.00
49102;BME280;34913;47.520;19.186;2023-01-20T15:10:39;99081.06;;;1.31;100.00
49102;BME280;34913;47.520;19.186;2023-01-20T15:13:22;99081.44;;;1.25;100.00
49102;BME280;34913;47.520;19.186;2023-01-20T15:15:48;99078.13;;;1.07;100.00
49102;BME280;34913;47.520;19.186;2023-01-20T15:18:17;99079.19;;;1.19;100.00
49102;BME280;34913;47.520;19.186;2023-01-20T15:20:54;99077.97;;;1.24;100.00